createdAt,value
2019-01-05T00:00:51.523Z,95455.35
2019-01-05T00:03:48.189Z,95458.53
2019-01-05T00:06:33.871Z,95462.62
2019-01-05T00:09:34.527Z,95468.47
2019-01-05T00:12:24.654Z,95472.86
2019-01-05T00:15:15.440Z,95463.02
2019-01-05T00:18:17.088Z,95468.32
2019-01-05T00:20:59.999Z,95470.90
2019-01-05T00:23:48.607Z,95480.20
2019-01-05T00:26:51.079Z,95483.02
2019-01-05T00:29:35.129Z,95476.47
2019-01-05T00:32:51.698Z,95481.99
2019-01-05T00:35:55.421Z,95484.66
2019-01-05T00:38:46.381Z,95484.53
2019-01-05T00:41:53.780Z,95487.05
2019-01-05T00:44:53.299Z,95483.45
2019-01-05T00:48:02.157Z,95478.03
2019-01-05T00:50:56.788Z,95472.43
2019-01-05T00:53:53.512Z,95470.44
2019-01-05T00:56:44.730Z,95466.28
2019-01-05T00:59:49.221Z,95462.73
2019-01-05T01:02:48.478Z,95467.12
2019-01-05T01:05:37.438Z,95455.12
2019-01-05T01:08:34.763Z,95441.60
2019-01-05T01:11:23.492Z,95439.30
2019-01-05T01:14:26.082Z,95442.50
2019-01-05T01:17:28.524Z,95437.22
2019-01-05T01:20:12.113Z,95427.59
2019-01-05T01:22:55.866Z,95420.67
2019-01-05T01:25:40.440Z,95423.12
2019-01-05T01:28:46.280Z,95427.81
2019-01-05T01:31:34.841Z,95422.42
2019-01-05T01:34:24.267Z,95415.39
2019-01-05T01:37:24.002Z,95407.55
2019-01-05T01:40:19.762Z,95403.12
2019-01-05T01:43:23.902Z,95396.92
2019-01-05T01:46:14.481Z,95398.34
2019-01-05T01:49:23.582Z,95399.73
2019-01-05T01:52:18.139Z,95402.08
2019-01-05T01:55:23.598Z,95400.12
2019-01-05T01:58:14.407Z,95401.27
2019-01-05T02:01:23.145Z,95393.07
2019-01-05T02:04:16.498Z,95394.82
2019-01-05T02:07:13.832Z,95400.00
2019-01-05T02:10:04.746Z,95393.77
2019-01-05T02:12:50.110Z,95397.06
2019-01-05T02:15:40.064Z,95394.70
2019-01-05T02:19:10.199Z,95384.77
2019-01-05T02:23:11.844Z,95382.13
2019-01-05T02:26:29.684Z,95374.56
2019-01-05T02:29:51.530Z,95364.86
2019-01-05T02:33:08.992Z,95369.55
2019-01-05T02:36:42.489Z,95370.70
2019-01-05T02:40:28.151Z,95361.67
2019-01-05T02:43:57.374Z,95359.78
2019-01-05T02:47:16.691Z,95364.12
2019-01-05T02:50:41.795Z,95353.14
2019-01-05T02:54:08.521Z,95358.23
2019-01-05T02:57:33.213Z,95354.59
2019-01-05T03:01:34.733Z,95352.48
2019-01-05T03:04:45.055Z,95351.50
2019-01-05T03:08:19.632Z,95352.11
2019-01-05T03:11:46.084Z,95355.91
2019-01-05T03:15:14.482Z,95354.98
2019-01-05T03:18:52.969Z,95349.88
2019-01-05T03:22:22.518Z,95348.67
2019-01-05T03:26:14.128Z,95343.02
2019-01-05T03:29:56.258Z,95341.80
2019-01-05T03:33:21.854Z,95336.00
2019-01-05T03:36:49.237Z,95339.07
2019-01-05T03:40:14.628Z,95344.80
2019-01-05T03:43:40.225Z,95347.22
2019-01-05T03:46:53.951Z,95346.95
2019-01-05T03:50:08.825Z,95341.92
2019-01-05T03:53:53.042Z,95340.59
2019-01-05T03:57:14.810Z,95331.42
2019-01-05T04:00:29.650Z,95326.73
2019-01-05T04:04:03.022Z,95326.56
2019-01-05T04:07:57.642Z,95328.69
2019-01-05T04:11:41.838Z,95323.20
2019-01-05T04:15:13.163Z,95319.77
2019-01-05T04:18:37.913Z,95316.20
2019-01-05T04:22:19.832Z,95313.66
2019-01-05T04:25:59.665Z,95317.41
2019-01-05T04:29:41.742Z,95313.23
2019-01-05T04:33:17.572Z,95319.66
2019-01-05T04:36:44.623Z,95313.73
2019-01-05T04:40:19.501Z,95307.69
2019-01-05T04:43:39.419Z,95309.84
2019-01-05T04:47:15.246Z,95308.52
2019-01-05T04:50:23.830Z,95301.59
2019-01-05T04:53:55.664Z,95303.94
2019-01-05T04:57:50.320Z,95307.47
2019-01-05T05:01:12.859Z,95294.22
2019-01-05T05:04:46.070Z,95288.45
2019-01-05T05:08:00.340Z,95292.48
2019-01-05T05:11:43.259Z,95296.34
2019-01-05T05:15:31.184Z,95297.91
2019-01-05T05:19:07.552Z,95294.30
2019-01-05T05:22:37.329Z,95293.09
2019-01-05T05:26:11.958Z,95282.99
2019-01-05T05:30:31.599Z,95286.27
2019-01-05T05:33:53.549Z,95275.96
2019-01-05T05:37:32.119Z,95270.81
2019-01-05T05:40:56.062Z,95269.08
2019-01-05T05:44:25.658Z,95269.36
2019-01-05T05:47:49.771Z,95268.13
2019-01-05T05:51:22.340Z,95272.52
2019-01-05T05:54:56.922Z,95276.23
2019-01-05T05:58:30.285Z,95280.58
2019-01-05T06:01:57.888Z,95278.20
2019-01-05T06:05:31.830Z,95283.27
2019-01-05T06:09:17.570Z,95282.38
2019-01-05T06:12:45.944Z,95287.23
2019-01-05T06:16:07.001Z,95287.45
2019-01-05T06:20:05.642Z,95288.98
2019-01-05T06:23:53.081Z,95292.20
2019-01-05T06:27:27.812Z,95298.92
2019-01-05T06:31:14.870Z,95293.95
2019-01-05T06:35:05.599Z,95303.94
2019-01-05T06:38:46.139Z,95304.36
2019-01-05T06:42:23.367Z,95312.16
2019-01-05T06:45:41.798Z,95315.36
2019-01-05T06:49:19.574Z,95321.13
2019-01-05T06:53:29.603Z,95322.02
2019-01-05T06:56:50.787Z,95320.44
2019-01-05T07:00:35.157Z,95325.06
2019-01-05T07:04:08.606Z,95322.51
2019-01-05T07:07:34.957Z,95328.06
2019-01-05T07:11:09.085Z,95330.41
2019-01-05T07:14:34.701Z,95328.65
2019-01-05T07:18:06.753Z,95322.05
2019-01-05T07:21:52.397Z,95325.50
2019-01-05T07:25:30.455Z,95315.11
2019-01-05T07:28:50.458Z,95318.53
2019-01-05T07:32:22.915Z,95321.33
2019-01-05T07:35:52.364Z,95318.27
2019-01-05T07:39:33.185Z,95315.38
2019-01-05T07:43:02.483Z,95308.55
2019-01-05T07:46:26.143Z,95304.41
2019-01-05T07:49:50.182Z,95311.84
2019-01-05T07:53:41.220Z,95304.69
2019-01-05T07:57:04.948Z,95301.11
2019-01-05T08:00:32.900Z,95297.81
2019-01-05T08:04:06.744Z,95288.96
2019-01-05T08:07:55.719Z,95294.76
2019-01-05T08:11:30.164Z,95289.42
2019-01-05T08:14:55.869Z,95278.61
2019-01-05T08:18:35.309Z,95281.86
2019-01-05T08:22:20.448Z,95276.14
2019-01-05T08:26:09.989Z,95274.11
2019-01-05T08:29:56.039Z,95268.89
2019-01-05T08:33:52.975Z,95263.01
2019-01-05T08:37:18.213Z,95258.76
2019-01-05T08:40:42.678Z,95245.17
2019-01-05T08:44:08.515Z,95233.19
2019-01-05T08:47:32.881Z,95235.42
2019-01-05T08:50:58.166Z,95238.22
2019-01-05T08:54:29.154Z,95231.88
2019-01-05T08:58:13.553Z,95225.92
2019-01-05T09:02:02.515Z,95218.25
2019-01-05T09:05:44.257Z,95215.18
2019-01-05T09:09:38.199Z,95201.17
2019-01-05T09:13:25.888Z,95206.61
2019-01-05T09:17:08.253Z,95197.72
2019-01-05T09:20:48.545Z,95182.58
2019-01-05T09:24:34.347Z,95188.15
2019-01-05T09:28:02.925Z,95175.72
2019-01-05T09:31:36.594Z,95177.15
2019-01-05T09:35:09.520Z,95171.57
2019-01-05T09:38:43.237Z,95162.07
2019-01-05T09:42:08.918Z,95155.06
2019-01-05T09:45:45.999Z,95142.05
2019-01-05T09:49:14.500Z,95143.41
2019-01-05T09:55:47.681Z,95109.61
2019-01-05T09:59:22.991Z,95116.27
2019-01-05T10:02:43.965Z,95103.92
2019-01-05T10:06:12.692Z,95103.60
2019-01-05T10:09:46.287Z,95099.48
2019-01-05T10:13:50.884Z,95092.74
2019-01-05T10:17:05.630Z,95092.30
2019-01-05T10:20:48.270Z,95085.00
2019-01-05T10:24:22.655Z,95079.88
2019-01-05T10:27:25.473Z,95078.39
2019-01-05T10:30:52.430Z,95069.44
2019-01-05T10:34:33.605Z,95062.17
2019-01-05T10:38:29.298Z,95062.17
2019-01-05T10:42:13.185Z,95052.41
2019-01-05T10:45:54.122Z,95045.46
2019-01-05T10:49:19.805Z,95037.55
2019-01-05T10:52:41.670Z,95028.53
2019-01-05T10:56:11.106Z,95017.17
2019-01-05T10:59:42.716Z,95013.20
2019-01-05T11:03:37.246Z,95004.97
2019-01-05T11:07:09.165Z,94990.77
2019-01-05T11:14:58.184Z,94980.94
2019-01-05T11:18:49.304Z,94974.56
2019-01-05T11:22:28.017Z,94977.89
2019-01-05T11:26:01.218Z,94958.03
2019-01-05T11:29:32.198Z,94956.36
2019-01-05T11:32:56.546Z,94960.41
2019-01-05T11:36:34.251Z,94955.13
2019-01-05T11:39:51.412Z,94937.83
2019-01-05T11:43:25.512Z,94940.97
2019-01-05T11:46:55.884Z,94936.53
2019-01-05T11:50:29.040Z,94928.67
2019-01-05T11:53:59.249Z,94921.72
2019-01-05T11:57:28.656Z,94923.13
2019-01-05T12:00:53.515Z,94913.19
2019-01-05T12:04:22.676Z,94904.65
2019-01-05T12:07:40.251Z,94909.30
2019-01-05T12:11:17.591Z,94908.59
2019-01-05T12:14:42.627Z,94899.31
2019-01-05T12:17:56.766Z,94906.80
2019-01-05T12:21:42.273Z,94899.34
2019-01-05T12:25:22.453Z,94897.73
2019-01-05T12:28:46.636Z,94892.39
2019-01-05T12:32:22.106Z,94892.45
2019-01-05T12:35:57.564Z,94888.52
2019-01-05T12:39:11.864Z,94890.09
2019-01-05T12:42:57.414Z,94890.09
2019-01-05T12:46:28.274Z,94921.45
2019-01-05T12:49:47.292Z,94876.78
2019-01-05T12:53:12.848Z,94870.34
2019-01-05T12:56:56.684Z,94861.11
2019-01-05T13:00:31.246Z,94861.14
2019-01-05T13:04:20.381Z,94861.14
2019-01-05T13:08:07.934Z,94853.95
2019-01-05T13:11:48.453Z,94853.84
2019-01-05T13:15:39.128Z,94851.61
2019-01-05T13:19:13.772Z,94850.00
2019-01-05T13:22:51.107Z,94847.75
2019-01-05T13:26:16.974Z,94848.08
2019-01-05T13:29:37.009Z,94842.14
2019-01-05T13:33:14.147Z,94836.92
2019-01-05T13:37:01.969Z,94837.72
2019-01-05T13:40:18.578Z,94834.19
2019-01-05T13:43:48.080Z,94836.27
2019-01-05T13:47:37.778Z,94840.03
2019-01-05T13:50:55.791Z,94836.88
2019-01-05T13:54:00.236Z,94841.68
2019-01-05T13:56:56.629Z,94842.66
2019-01-05T13:59:48.311Z,94835.02
2019-01-05T14:02:48.259Z,94835.61
2019-01-05T14:05:50.472Z,94835.45
2019-01-05T14:08:41.287Z,94834.97
2019-01-05T14:11:34.241Z,94831.72
2019-01-05T14:14:26.639Z,94824.41
2019-01-05T14:17:30.873Z,94831.05
2019-01-05T14:20:31.693Z,94827.88
2019-01-05T14:23:23.175Z,94828.66
2019-01-05T14:26:25.472Z,94824.36
2019-01-05T14:29:14.194Z,94820.77
2019-01-05T14:32:19.491Z,94820.33
2019-01-05T14:35:15.422Z,94820.83
2019-01-05T14:38:10.225Z,94820.99
2019-01-05T14:40:57.330Z,94815.58
2019-01-05T14:43:50.320Z,94820.96
2019-01-05T14:47:00.282Z,94819.92
2019-01-05T14:49:48.882Z,94814.12
2019-01-05T14:52:44.714Z,94813.36
2019-01-05T14:55:40.965Z,94817.89
2019-01-05T14:58:40.130Z,94818.61
2019-01-05T15:01:36.184Z,94818.00
2019-01-05T15:04:32.332Z,94809.15
2019-01-05T15:07:32.520Z,94817.53
2019-01-05T15:10:22.654Z,94816.99
2019-01-05T15:13:28.206Z,94822.65
2019-01-05T15:16:33.356Z,94824.78
2019-01-05T15:19:41.897Z,94829.46
2019-01-05T15:22:50.456Z,94821.19
2019-01-05T15:25:39.535Z,94811.41
2019-01-05T15:28:29.744Z,94829.53
2019-01-05T15:31:19.834Z,94832.95
2019-01-05T15:34:10.776Z,94830.23
2019-01-05T15:36:59.273Z,94831.98
2019-01-05T15:39:49.379Z,94826.64
2019-01-05T15:42:40.479Z,94828.48
2019-01-05T15:45:29.589Z,94819.42
2019-01-05T15:48:18.753Z,94819.81
2019-01-05T15:51:27.059Z,94816.52
2019-01-05T15:54:26.189Z,94822.36
2019-01-05T15:57:25.966Z,94831.02
2019-01-05T16:00:19.116Z,94838.30
2019-01-05T16:03:24.371Z,94846.92
2019-01-05T16:06:13.471Z,94847.19
2019-01-05T16:09:15.711Z,94847.33
2019-01-05T16:12:04.879Z,94848.96
2019-01-05T16:15:01.016Z,94846.64
2019-01-05T16:17:52.498Z,94848.37
2019-01-05T16:20:48.404Z,94844.92
2019-01-05T16:23:43.166Z,94845.59
2019-01-05T16:26:31.964Z,94850.78
2019-01-05T16:29:36.586Z,94846.64
2019-01-05T16:32:25.550Z,94844.88
2019-01-05T16:35:18.474Z,94849.37
2019-01-05T16:38:17.507Z,94850.30
2019-01-05T16:41:13.451Z,94855.45
2019-01-05T16:44:03.733Z,94851.19
2019-01-05T16:46:53.640Z,94851.05
2019-01-05T16:49:46.823Z,94851.77
2019-01-05T16:52:48.930Z,94856.12
2019-01-05T16:55:45.129Z,94857.89
2019-01-05T16:58:33.884Z,94858.28
2019-01-05T17:01:24.473Z,94866.03
2019-01-05T17:04:23.882Z,94855.98
2019-01-05T17:07:23.368Z,94862.38
2019-01-05T17:10:13.270Z,94868.92
2019-01-05T17:13:12.549Z,94873.77
2019-01-05T17:16:14.613Z,94866.00
2019-01-05T17:19:25.466Z,94868.16
2019-01-05T17:22:18.051Z,94866.00
2019-01-05T17:25:14.355Z,94863.19
2019-01-05T17:28:03.238Z,94865.09
2019-01-05T17:30:53.146Z,94863.47
2019-01-05T17:33:52.428Z,94860.91
2019-01-05T17:36:51.682Z,94863.53
2019-01-05T17:39:56.875Z,94860.52
2019-01-05T17:42:45.797Z,94865.52
2019-01-05T17:45:34.999Z,94850.63
2019-01-05T17:48:38.559Z,94856.14
2019-01-05T17:51:47.329Z,94851.70
2019-01-05T17:54:39.515Z,94844.98
2019-01-05T17:57:29.571Z,94849.37
2019-01-05T18:00:29.067Z,94842.41
2019-01-05T18:03:17.907Z,94837.97
2019-01-05T18:06:21.612Z,94842.84
2019-01-05T18:09:11.940Z,94842.34
2019-01-05T18:12:00.939Z,94834.52
2019-01-05T18:15:03.411Z,94835.18
2019-01-05T18:17:52.070Z,94828.23
2019-01-05T18:20:40.713Z,94834.09
2019-01-05T18:23:39.687Z,94831.08
2019-01-05T18:26:31.200Z,94837.97
2019-01-05T18:29:20.408Z,94835.45
2019-01-05T18:32:19.753Z,94828.81
2019-01-05T18:35:08.933Z,94835.75
2019-01-05T18:38:05.498Z,94832.08
2019-01-05T18:40:58.691Z,94834.03
2019-01-05T18:43:47.444Z,94834.15
2019-01-05T18:46:36.489Z,94824.45
2019-01-05T18:49:32.306Z,94825.18
2019-01-05T18:52:25.047Z,94824.27
2019-01-05T18:55:15.813Z,94825.73
2019-01-05T18:58:20.009Z,94822.84
2019-01-05T19:01:21.342Z,94825.46
2019-01-05T19:04:14.333Z,94824.86
2019-01-05T19:07:16.983Z,94819.81
2019-01-05T19:10:05.798Z,94826.32
2019-01-05T19:12:55.918Z,94823.59
2019-01-05T19:15:49.000Z,94823.99
2019-01-05T19:18:51.471Z,94826.84
2019-01-05T19:21:54.821Z,94825.87
2019-01-05T19:24:47.641Z,94822.84
2019-01-05T19:27:34.102Z,94820.72
2019-01-05T19:30:19.746Z,94823.97
2019-01-05T19:33:19.004Z,94817.09
2019-01-05T19:36:14.974Z,94814.30
2019-01-05T19:39:20.265Z,94812.34
2019-01-05T19:42:12.017Z,94816.69
2019-01-05T19:45:01.163Z,94814.58
2019-01-05T19:47:49.987Z,94807.90
2019-01-05T19:50:39.184Z,94811.08
2019-01-05T19:53:35.505Z,94807.11
2019-01-05T19:56:24.556Z,94803.78
2019-01-05T19:59:21.031Z,94811.55
2019-01-05T20:02:16.881Z,94808.95
2019-01-05T20:05:05.849Z,94805.51
2019-01-05T20:08:13.138Z,94806.89
2019-01-05T20:11:02.269Z,94800.86
2019-01-05T20:13:51.912Z,94800.48
2019-01-05T20:16:48.196Z,94804.77
2019-01-05T20:19:38.471Z,94796.00
2019-01-05T20:22:37.630Z,94795.98
2019-01-05T20:25:30.877Z,94790.29
2019-01-05T20:28:30.239Z,94793.13
2019-01-05T20:31:20.371Z,94781.55
2019-01-05T20:34:10.328Z,94784.77
2019-01-05T20:37:00.444Z,94787.72
2019-01-05T20:39:56.360Z,94774.01
2019-01-05T20:42:55.548Z,94761.79
2019-01-05T20:45:51.751Z,94758.48
2019-01-05T20:48:56.842Z,94750.50
2019-01-05T20:52:05.356Z,94750.03
2019-01-05T20:55:01.785Z,94743.45
2019-01-05T20:57:52.328Z,94735.56
2019-01-05T21:00:41.496Z,94728.77
2019-01-05T21:03:43.697Z,94734.39
2019-01-05T21:06:40.000Z,94724.90
2019-01-05T21:09:29.120Z,94720.81
2019-01-05T21:12:37.578Z,94716.34
2019-01-05T21:15:39.948Z,94724.10
2019-01-05T21:18:35.957Z,94713.92
2019-01-05T21:21:25.218Z,94707.43
2019-01-05T21:24:25.517Z,94704.72
2019-01-05T21:27:18.669Z,94707.25
2019-01-05T21:30:07.965Z,94710.86
2019-01-05T21:33:04.042Z,94705.85
2019-01-05T21:35:53.178Z,94711.55
2019-01-05T21:39:01.614Z,94704.88
2019-01-05T21:41:53.205Z,94693.69
2019-01-05T21:44:43.507Z,94694.91
2019-01-05T21:47:45.603Z,94692.27
2019-01-05T21:50:38.534Z,94695.31
2019-01-05T21:53:27.425Z,94695.14
2019-01-05T21:56:35.732Z,94688.08
2019-01-05T21:59:26.468Z,94684.36
2019-01-05T22:02:15.419Z,94681.09
2019-01-05T22:05:04.321Z,94676.78
2019-01-05T22:08:12.856Z,94674.67
2019-01-05T22:11:15.225Z,94679.57
2019-01-05T22:14:03.781Z,94669.39
2019-01-05T22:16:52.986Z,94672.23
2019-01-05T22:20:01.233Z,94662.96
2019-01-05T22:22:51.473Z,94653.64
2019-01-05T22:25:41.469Z,94645.35
2019-01-05T22:28:35.814Z,94643.52
2019-01-05T22:31:37.267Z,94637.32
2019-01-05T22:34:26.096Z,94641.91
2019-01-05T22:37:18.204Z,94645.67
2019-01-05T22:40:19.052Z,94636.53
2019-01-05T22:43:08.692Z,94633.67
2019-01-05T22:46:07.609Z,94638.40
2019-01-05T22:48:56.443Z,94639.08
2019-01-05T22:51:45.232Z,94634.03
2019-01-05T22:54:35.461Z,94623.81
2019-01-05T22:57:31.659Z,94622.78
2019-01-05T23:00:30.433Z,94626.41
2019-01-05T23:03:29.450Z,94622.14
2019-01-05T23:06:37.680Z,94612.84
2019-01-05T23:09:28.155Z,94620.27
2019-01-05T23:12:24.334Z,94606.19
2019-01-05T23:15:14.701Z,94612.95
2019-01-05T23:18:03.841Z,94608.38
2019-01-05T23:20:59.769Z,94601.15
2019-01-05T23:23:59.090Z,94599.22
2019-01-05T23:27:01.168Z,94601.80
2019-01-05T23:29:53.956Z,94590.85
2019-01-05T23:32:45.922Z,94599.73
2019-01-05T23:35:35.163Z,94596.67
2019-01-05T23:38:24.116Z,94588.38
2019-01-05T23:41:26.759Z,94590.69
2019-01-05T23:44:15.469Z,94599.23
2019-01-05T23:46:59.779Z,94593.55
2019-01-05T23:49:58.586Z,94595.87
2019-01-05T23:52:47.579Z,94589.76
2019-01-05T23:55:38.798Z,94585.09
2019-01-05T23:59:03.127Z,94595.27
